Time;durP1;ratioP1;P1;durP2;ratioP2;P2;SDS_P1;SDS_P2;PMS_P1;PMS_P2;Temp;Humidity;BMP_temperature;BMP_pressure;BME280_temperature;BME280_humidity;BME280_pressure;Samples;Min_cycle;Max_cycle;Signal;HPM_P1;HPM_P2
2021/07/17 00:00:56;;;;;;;18.83;13.00;;;;;;;23.19;77.85;99186.47;3478860;28;20072;-42
2021/07/17 00:02:37;;;;;;;15.13;12.65;;;;;;;23.20;77.63;99182.91;3480211;28;20084;-42
2021/07/17 00:04:19;;;;;;;17.95;12.68;;;;;;;23.18;77.68;99186.53;3481678;28;20056;-42
2021/07/17 00:06:04;;;;;;;17.75;12.98;;;;;;;23.17;77.91;99192.78;3476792;28;20069;-42
2021/07/17 00:07:46;;;;;;;19.52;13.25;;;;;;;23.15;78.14;99183.09;3468967;28;20573;-42
2021/07/17 00:09:27;;;;;;;16.33;12.57;;;;;;;23.14;77.98;99184.03;3476943;28;20099;-43
2021/07/17 00:11:09;;;;;;;15.65;12.07;;;;;;;23.14;78.01;99180.53;3482501;28;20049;-43
2021/07/17 00:12:51;;;;;;;17.25;13.07;;;;;;;23.11;78.39;99181.53;3479270;28;20083;-42
2021/07/17 00:14:32;;;;;;;15.75;12.68;;;;;;;23.10;78.61;99182.47;3479589;28;20136;-42
2021/07/17 00:16:13;;;;;;;18.58;13.73;;;;;;;23.09;78.76;99193.97;3481844;28;20079;-42
2021/07/17 00:17:55;;;;;;;14.98;13.05;;;;;;;23.08;78.29;99186.13;3478177;28;20506;-42
2021/07/17 00:19:36;;;;;;;16.40;13.00;;;;;;;23.06;78.53;99186.19;3483030;28;20577;-42
2021/07/17 00:21:17;;;;;;;16.85;13.32;;;;;;;23.07;79.07;99182.59;3473522;28;20143;-42
2021/07/17 00:22:59;;;;;;;17.08;13.80;;;;;;;23.03;79.13;99181.03;3470061;28;20081;-42
2021/07/17 00:24:40;;;;;;;18.45;12.93;;;;;;;23.03;79.06;99178.38;3470752;28;20065;-42
2021/07/17 00:26:22;;;;;;;17.65;12.80;;;;;;;23.06;79.05;99180.88;3472099;28;20072;-42
2021/07/17 00:28:04;;;;;;;20.98;12.77;;;;;;;23.08;78.85;99178.19;3468673;28;20497;-42
2021/07/17 00:29:46;;;;;;;17.23;12.60;;;;;;;23.07;78.68;99179.94;3472716;28;20172;-42
2021/07/17 00:31:27;;;;;;;17.52;13.10;;;;;;;23.07;78.25;99177.28;3482928;28;20045;-42
2021/07/17 00:33:08;;;;;;;19.65;12.43;;;;;;;23.06;78.82;99182.66;3474566;28;20045;-42
2021/07/17 00:34:49;;;;;;;16.50;13.48;;;;;;;23.07;78.98;99179.09;3469611;28;20511;-42
2021/07/17 00:36:31;;;;;;;18.30;13.40;;;;;;;23.06;78.79;99177.38;3478729;28;20080;-42
2021/07/17 00:38:12;;;;;;;17.05;13.57;;;;;;;23.05;79.10;99173.88;3479739;28;20080;-42
2021/07/17 00:39:53;;;;;;;17.40;12.90;;;;;;;23.05;78.68;99175.66;3481222;28;20143;-42
2021/07/17 00:41:35;;;;;;;17.65;12.52;;;;;;;23.06;78.62;99177.38;3476157;28;20520;-42
2021/07/17 00:43:17;;;;;;;19.92;13.02;;;;;;;23.03;78.74;99172.25;3468854;28;20509;-42
2021/07/17 00:44:58;;;;;;;18.50;13.15;;;;;;;23.02;78.92;99174.00;3475914;28;20084;-42
2021/07/17 00:46:44;;;;;;;16.75;12.88;;;;;;;23.00;78.89;99175.00;3482517;28;20049;-42
2021/07/17 00:48:27;;;;;;;16.75;12.95;;;;;;;23.02;79.19;99170.50;3478934;28;20053;-42
2021/07/17 00:50:11;;;;;;;18.63;12.65;;;;;;;23.02;78.58;99166.06;3478995;28;20136;-42
2021/07/17 00:51:53;;;;;;;20.23;13.02;;;;;;;23.01;78.86;99174.94;3482091;28;20083;-42
2021/07/17 00:53:35;;;;;;;16.77;12.93;;;;;;;23.00;79.14;99173.22;3474023;28;20049;-42
2021/07/17 00:55:18;;;;;;;17.80;12.32;;;;;;;23.01;79.25;99171.44;3482418;28;20146;-42
2021/07/17 00:57:01;;;;;;;;;;;;;;;23.01;78.86;99174.94;3478569;28;20185;-42
2021/07/17 00:58:43;;;;;;;14.48;12.82;;;;;;;22.97;79.70;99173.34;3479749;28;19924;-42
2021/07/17 01:00:25;;;;;;;18.20;13.43;;;;;;;22.98;79.71;99169.78;3469685;28;20088;-42
2021/07/17 01:02:08;;;;;;;16.27;13.20;;;;;;;22.97;79.66;99168.06;3470080;28;20489;-42
2021/07/17 01:03:50;;;;;;;14.13;12.18;;;;;;;22.95;79.50;99168.16;3481591;28;20053;-42
2021/07/17 01:05:32;;;;;;;18.25;12.48;;;;;;;22.93;78.97;99167.34;3473011;28;20049;-42
2021/07/17 01:07:13;;;;;;;18.65;12.93;;;;;;;22.94;79.73;99169.06;3468586;28;20597;-42
2021/07/17 01:08:54;;;;;;;25.98;13.45;;;;;;;22.92;79.92;99172.72;3477467;28;20091;-42
2021/07/17 01:10:36;;;;;;;16.40;12.60;;;;;;;22.90;80.46;99171.91;3480808;28;20079;-42
2021/07/17 01:12:17;;;;;;;18.90;13.13;;;;;;;22.89;80.10;99181.63;3470320;28;20486;-42
2021/07/17 01:13:59;;;;;;;19.58;12.73;;;;;;;22.89;80.47;99172.84;3470185;28;20079;-42
2021/07/17 01:15:41;;;;;;;18.58;13.35;;;;;;;22.91;80.18;99176.28;3482349;28;20049;-42
2021/07/17 01:17:22;;;;;;;20.75;12.52;;;;;;;22.93;80.03;99175.28;3477870;28;20060;-42
2021/07/17 01:19:03;;;;;;;23.42;13.52;;;;;;;22.93;79.96;99169.13;3482222;28;20506;-42
2021/07/17 01:20:47;;;;;;;24.20;12.80;;;;;;;22.93;80.39;99169.97;3473207;28;20142;-42
2021/07/17 01:22:29;;;;;;;24.70;12.85;;;;;;;22.94;80.71;99165.56;3469268;28;20590;-42
2021/07/17 01:24:10;;;;;;;21.42;13.07;;;;;;;22.92;80.79;99170.09;3469091;28;20573;-42
2021/07/17 01:25:51;;;;;;;22.15;13.90;;;;;;;22.91;80.58;99176.28;3470069;28;20045;-41
2021/07/17 01:27:33;;;;;;;21.77;13.48;;;;;;;22.90;80.44;99183.38;3482023;28;20461;-42
2021/07/17 01:29:15;;;;;;;20.48;13.55;;;;;;;22.91;80.57;99181.56;3476342;28;20569;-42
2021/07/17 01:30:56;;;;;;;17.30;12.77;;;;;;;22.87;80.32;99175.56;3468376;28;20084;-42
2021/07/17 01:32:37;;;;;;;21.67;12.82;;;;;;;22.87;80.39;99172.06;3476804;28;20083;-42
2021/07/17 01:34:19;;;;;;;18.52;12.95;;;;;;;22.87;80.27;99175.56;3480472;28;20778;-42
2021/07/17 01:36:00;;;;;;;20.90;13.68;;;;;;;22.84;80.60;99167.75;3470208;28;20151;-42
2021/07/17 01:37:42;;;;;;;28.98;14.50;;;;;;;22.84;80.63;99166.91;3470126;28;20148;-42
2021/07/17 01:39:23;;;;;;;24.08;13.82;;;;;;;22.81;80.98;99167.88;3481212;28;20678;-41
2021/07/17 01:41:05;;;;;;;21.15;13.55;;;;;;;22.80;80.88;99171.47;3477657;28;20083;-42
2021/07/17 01:42:47;;;;;;;25.92;13.20;;;;;;;22.80;81.04;99175.91;3481963;28;20500;-42
2021/07/17 01:44:28;;;;;;;24.80;13.55;;;;;;;22.80;80.80;99173.28;3476840;28;20083;-42
2021/07/17 01:46:10;;;;;;;15.43;13.02;;;;;;;22.78;80.79;99173.34;3480812;28;20532;-42
2021/07/17 01:47:52;;;;;;;25.42;13.52;;;;;;;22.76;80.77;99173.41;3469732;28;20427;-43
2021/07/17 01:49:33;;;;;;;27.83;13.13;;;;;;;22.74;80.97;99164.69;3472151;28;20115;-42
2021/07/17 01:51:14;;;;;;;24.48;12.93;;;;;;;22.73;81.07;99164.75;3470541;28;20149;-41
2021/07/17 01:52:57;;;;;;;20.02;13.40;;;;;;;22.71;81.55;99167.44;3471734;28;20521;-42
2021/07/17 01:54:38;;;;;;;24.65;13.05;;;;;;;22.69;81.40;99171.97;3470691;28;20049;-42
2021/07/17 01:56:19;;;;;;;29.92;13.82;;;;;;;22.66;81.96;99173.88;3477371;28;20575;-42
2021/07/17 01:58:02;;;;;;;24.38;13.73;;;;;;;22.64;82.03;99171.31;3483131;28;20145;-42
2021/07/17 01:59:45;;;;;;;16.98;13.07;;;;;;;22.65;81.99;99175.63;3483466;28;20080;-42
2021/07/17 02:01:26;;;;;;;19.48;13.75;;;;;;;22.68;81.88;99174.66;3480189;28;20079;-42
2021/07/17 02:03:09;;;;;;;22.52;13.90;;;;;;;22.70;81.50;99178.09;3483434;28;20143;-42
2021/07/17 02:04:51;;;;;;;20.43;13.10;;;;;;;22.68;81.45;99169.38;3477277;28;20041;-42
2021/07/17 02:06:32;;;;;;;22.63;12.90;;;;;;;22.69;81.42;99179.00;3470622;28;20515;-42
2021/07/17 02:08:14;;;;;;;22.02;13.57;;;;;;;22.65;81.58;99180.94;3473837;28;20131;-42
2021/07/17 02:09:55;;;;;;;19.63;13.50;;;;;;;22.65;81.98;99174.78;3471381;28;20083;-42
2021/07/17 02:11:37;;;;;;;21.52;13.82;;;;;;;22.63;82.20;99171.34;3480520;28;20045;-42
2021/07/17 02:13:18;;;;;;;21.17;13.32;;;;;;;22.61;82.22;99174.06;3482008;28;20048;-42
2021/07/17 02:15:00;;;;;;;18.63;13.75;;;;;;;22.62;82.06;99182.84;3470472;28;20116;-42
2021/07/17 02:16:41;;;;;;;18.20;12.32;;;;;;;22.63;81.91;99180.16;3474206;28;20087;-42
2021/07/17 02:18:25;;;;;;;18.83;13.40;;;;;;;22.64;81.83;99175.75;3470395;28;20089;-42
2021/07/17 02:20:07;;;;;;;21.13;14.70;;;;;;;22.63;81.70;99176.66;3472746;28;20080;-42
2021/07/17 02:21:50;;;;;;;21.15;14.73;;;;;;;22.66;81.90;99181.81;3469817;28;20068;-42
2021/07/17 02:23:33;;;;;;;22.70;14.30;;;;;;;22.70;81.66;99173.66;3472123;28;20511;-42
2021/07/17 02:25:14;;;;;;;20.27;14.25;;;;;;;22.72;81.41;99178.88;3473794;28;20285;-42
2021/07/17 02:26:55;;;;;;;18.83;13.80;;;;;;;22.71;80.46;99183.31;3470122;28;20514;-42
2021/07/17 02:28:38;;;;;;;20.45;12.52;;;;;;;22.71;81.82;99178.03;3475623;28;20175;-42
2021/07/17 02:30:19;;;;;;;17.63;12.88;;;;;;;22.69;81.51;99182.53;3484308;28;20073;-41
2021/07/17 02:32:01;;;;;;;23.27;13.98;;;;;;;22.67;81.85;99187.03;3472806;28;20084;-42
2021/07/17 02:33:43;;;;;;;21.80;14.50;;;;;;;22.70;82.32;99183.38;3469874;28;20061;-42
2021/07/17 02:35:24;;;;;;;17.95;13.65;;;;;;;22.73;82.34;99181.47;3471795;28;20084;-42
2021/07/17 02:37:06;;;;;;;23.00;14.10;;;;;;;22.77;81.96;99184.81;3473829;28;20130;-42
2021/07/17 02:38:47;;;;;;;23.90;14.45;;;;;;;22.81;82.14;99180.25;3470436;28;20068;-42
2021/07/17 02:40:29;;;;;;;18.20;13.85;;;;;;;22.83;81.99;99174.00;3474003;28;20076;-42
2021/07/17 02:42:10;;;;;;;19.48;13.48;;;;;;;22.85;82.04;99174.78;3470212;28;20144;-42
2021/07/17 02:43:52;;;;;;;21.23;13.77;;;;;;;22.86;81.99;99165.91;3479035;28;20149;-42
2021/07/17 02:45:33;;;;;;;19.55;13.82;;;;;;;22.88;82.28;99169.34;3482018;28;20539;-42
2021/07/17 02:47:15;;;;;;;17.15;13.00;;;;;;;22.88;82.29;99172.00;3481240;28;20045;-42
2021/07/17 02:48:56;;;;;;;20.13;13.85;;;;;;;22.89;82.45;99178.16;3481475;28;20076;-42
2021/07/17 02:50:38;;;;;;;19.13;14.30;;;;;;;22.91;82.23;99165.69;3470228;28;20077;-42
2021/07/17 02:52:19;;;;;;;19.50;14.27;;;;;;;22.93;82.23;99172.63;3472157;28;20270;-42
2021/07/17 02:54:01;;;;;;;16.52;14.35;;;;;;;22.96;81.93;99167.22;3470187;28;20081;-42
2021/07/17 02:55:42;;;;;;;20.23;14.35;;;;;;;23.00;82.18;99173.22;3478497;28;20091;-42
2021/07/17 02:57:24;;;;;;;18.77;13.60;;;;;;;23.06;82.37;99172.06;3482114;28;20497;-42
2021/07/17 02:59:05;;;;;;;21.10;13.95;;;;;;;23.08;82.37;99176.38;3471710;28;20125;-42
2021/07/17 03:00:53;;;;;;;18.17;13.65;;;;;;;23.12;82.42;99171.81;3470712;28;20462;-42
2021/07/17 03:02:35;;;;;;;20.20;13.82;;;;;;;23.14;82.51;99172.59;3469277;28;20115;-42
2021/07/17 03:04:16;;;;;;;16.33;13.65;;;;;;;23.15;82.19;99175.16;3475610;28;20045;-42
2021/07/17 03:05:57;;;;;;;19.17;14.70;;;;;;;23.19;82.02;99173.25;3483701;28;20527;-42
2021/07/17 03:07:39;;;;;;;18.80;14.13;;;;;;;23.22;82.27;99170.47;3473758;28;20045;-42
2021/07/17 03:09:21;;;;;;;20.98;13.77;;;;;;;23.24;82.53;99165.94;3469816;28;20095;-42
2021/07/17 03:11:02;;;;;;;19.00;15.02;;;;;;;23.25;82.32;99172.09;3483028;28;20432;-43
2021/07/17 03:12:43;;;;;;;17.80;14.02;;;;;;;23.28;82.26;99172.00;3479732;28;20092;-42
2021/07/17 03:14:25;;;;;;;16.95;13.95;;;;;;;23.31;82.77;99179.78;3469779;28;20049;-42
2021/07/17 03:16:06;;;;;;;21.48;14.43;;;;;;;23.34;82.96;99167.28;3475484;28;20049;-42
2021/07/17 03:17:48;;;;;;;18.85;14.10;;;;;;;23.39;82.93;99167.03;3483373;28;20106;-42
2021/07/17 03:19:29;;;;;;;21.90;15.13;;;;;;;23.43;82.08;99162.47;3473510;28;20088;-42
2021/07/17 03:21:10;;;;;;;21.05;14.80;;;;;;;23.47;82.38;99161.41;3470519;28;20057;-42
2021/07/17 03:22:51;;;;;;;20.92;13.93;;;;;;;23.52;82.66;99162.91;3471111;28;20142;-42
2021/07/17 03:24:33;;;;;;;18.15;13.30;;;;;;;23.58;82.61;99158.25;3471788;28;20131;-42
2021/07/17 03:26:15;;;;;;;15.15;13.13;;;;;;;23.66;82.83;99162.22;3483330;28;20091;-42
2021/07/17 03:27:57;;;;;;;19.52;15.05;;;;;;;23.72;81.98;99161.94;3477261;28;20377;-42
2021/07/17 03:29:38;;;;;;;17.27;14.57;;;;;;;23.81;81.93;99163.28;3469675;28;20119;-42
2021/07/17 03:31:25;;;;;;;20.98;13.98;;;;;;;23.88;81.66;99156.72;3478235;28;20072;-42
2021/07/17 03:33:07;;;;;;;19.48;14.57;;;;;;;23.96;81.02;99166.97;3481621;28;20068;-42
2021/07/17 03:34:48;;;;;;;19.83;14.45;;;;;;;24.04;81.34;99162.13;3480662;28;20084;-42
2021/07/17 03:36:29;;;;;;;20.95;14.65;;;;;;;24.11;81.25;99167.16;3480058;28;20052;-42
2021/07/17 03:38:11;;;;;;;21.35;14.65;;;;;;;24.19;80.93;99164.97;3469691;28;20081;-42
2021/07/17 03:39:53;;;;;;;20.20;14.30;;;;;;;24.26;81.21;99161.94;3475227;28;20045;-42
2021/07/17 03:41:36;;;;;;;18.35;13.55;;;;;;;24.34;81.71;99158.91;3483213;28;20052;-42
2021/07/17 03:43:17;;;;;;;19.25;15.18;;;;;;;24.42;80.17;99158.53;3477799;28;20076;-42
2021/07/17 03:44:59;;;;;;;20.63;15.70;;;;;;;24.51;79.69;99155.41;3481507;28;20100;-42
2021/07/17 03:46:40;;;;;;;24.33;15.75;;;;;;;24.58;79.99;99158.59;3480965;28;20099;-42
2021/07/17 03:48:21;;;;;;;20.85;14.50;;;;;;;24.66;79.88;99159.03;3478738;28;20060;-42
2021/07/17 03:50:04;;;;;;;23.60;14.98;;;;;;;24.73;79.53;99160.41;3469450;28;20057;-42
2021/07/17 03:51:45;;;;;;;19.77;14.40;;;;;;;24.82;79.28;99153.78;3477174;28;20530;-42
2021/07/17 03:53:27;;;;;;;18.92;14.35;;;;;;;24.89;78.68;99152.53;3471352;28;20385;-42
2021/07/17 03:55:10;;;;;;;22.35;13.90;;;;;;;24.97;78.53;99149.47;3471819;28;20562;-42
2021/07/17 03:56:51;;;;;;;17.90;14.23;;;;;;;25.07;78.04;99155.13;3469627;28;20049;-43
2021/07/17 03:58:33;;;;;;;18.10;14.15;;;;;;;25.14;76.91;99161.81;3482712;28;20045;-42
2021/07/17 04:00:16;;;;;;;17.13;13.93;;;;;;;25.21;76.19;99148.16;3478737;28;20132;-42
2021/07/17 04:01:57;;;;;;;17.15;14.32;;;;;;;25.28;74.17;99150.44;3469167;28;20081;-42
2021/07/17 04:03:40;;;;;;;20.63;13.65;;;;;;;25.35;74.29;99149.16;3475478;28;20076;-42
2021/07/17 04:05:22;;;;;;;18.33;14.20;;;;;;;25.43;73.87;99157.56;3482802;28;20045;-42
2021/07/17 04:07:03;;;;;;;18.65;15.05;;;;;;;25.48;72.63;99163.47;3479030;28;20106;-42
2021/07/17 04:08:45;;;;;;;24.00;15.02;;;;;;;25.55;72.89;99172.84;3481024;28;20141;-42
2021/07/17 04:10:27;;;;;;;18.55;14.32;;;;;;;25.60;73.00;99176.13;3482606;28;20107;-42
2021/07/17 04:12:08;;;;;;;26.60;13.45;;;;;;;25.69;72.93;99179.16;3478310;28;20076;-41
2021/07/17 04:13:50;;;;;;;28.27;14.93;;;;;;;25.77;72.90;99179.59;3482952;28;20091;-43
2021/07/17 04:15:31;;;;;;;30.17;15.25;;;;;;;25.84;72.55;99180.97;3476009;28;20045;-42
2021/07/17 04:17:13;;;;;;;30.05;14.82;;;;;;;25.91;72.26;99181.47;3469093;28;20071;-42
2021/07/17 04:18:54;;;;;;;22.38;14.50;;;;;;;26.02;72.13;99183.50;3477634;28;20045;-42
2021/07/17 04:20:36;;;;;;;24.13;14.35;;;;;;;26.09;70.83;99180.41;3479782;28;20543;-42
2021/07/17 04:22:17;;;;;;;21.15;14.02;;;;;;;26.13;70.51;99183.75;3469644;28;20057;-42
2021/07/17 04:23:58;;;;;;;26.95;13.60;;;;;;;26.20;70.50;99181.56;3470140;28;20557;-42
2021/07/17 04:25:40;;;;;;;23.83;12.68;;;;;;;26.24;70.88;99181.31;3469302;28;20088;-42
2021/07/17 04:27:22;;;;;;;25.08;13.98;;;;;;;26.27;71.13;99174.97;3475078;28;20187;-42
2021/07/17 04:29:03;;;;;;;16.70;13.15;;;;;;;26.35;71.66;99186.88;3482662;28;20076;-42
2021/07/17 04:30:45;;;;;;;20.77;13.45;;;;;;;26.44;70.77;99182.81;3478196;28;20536;-44
2021/07/17 04:32:26;;;;;;;20.20;13.30;;;;;;;26.52;69.92;99180.56;3480989;28;20102;-43
2021/07/17 04:34:07;;;;;;;16.80;11.88;;;;;;;26.62;68.89;99178.19;3470102;28;20169;-42
2021/07/17 04:35:49;;;;;;;11.82;10.27;;;;;;;26.70;68.36;99183.06;3471095;28;20462;-42
2021/07/17 04:37:30;;;;;;;18.38;11.80;;;;;;;26.73;68.68;99175.75;3468975;28;20049;-43
2021/07/17 04:39:13;;;;;;;;;;;;;;;26.83;68.58;99177.84;3473041;28;20049;-44
2021/07/17 04:40:55;;;;;;;15.48;12.35;;;;;;;26.88;67.67;99181.09;3468942;28;20430;-43
2021/07/17 04:42:36;;;;;;;15.13;11.48;;;;;;;26.99;67.44;99177.78;3477842;28;20080;-42
2021/07/17 04:44:17;;;;;;;17.73;11.50;;;;;;;27.06;67.28;99182.63;3480828;28;20079;-43
2021/07/17 04:45:59;;;;;;;16.88;11.68;;;;;;;27.15;67.90;99185.69;3482256;28;20135;-42
2021/07/17 04:47:40;;;;;;;15.18;11.30;;;;;;;27.21;66.59;99175.50;3478884;28;20050;-43
2021/07/17 04:49:21;;;;;;;16.25;11.30;;;;;;;27.30;66.71;99177.56;3468652;28;20088;-43
2021/07/17 04:51:03;;;;;;;14.40;10.73;;;;;;;27.39;65.63;99170.81;3474312;28;20425;-43
2021/07/17 04:52:44;;;;;;;17.33;11.40;;;;;;;27.45;64.97;99172.22;3476354;28;20099;-44
2021/07/17 04:54:26;;;;;;;16.90;10.70;;;;;;;27.52;65.40;99172.69;3471430;28;20080;-43
2021/07/17 04:56:08;;;;;;;14.95;10.05;;;;;;;27.57;65.20;99175.91;3469642;28;20084;-43
2021/07/17 04:57:49;;;;;;;17.70;11.13;;;;;;;27.63;64.89;99176.41;3469946;28;20545;-43
2021/07/17 04:59:30;;;;;;;18.65;10.77;;;;;;;27.69;64.08;99175.16;3470738;28;20103;-43
2021/07/17 05:01:12;;;;;;;18.23;11.13;;;;;;;27.74;63.40;99173.03;3482241;28;20110;-44
2021/07/17 05:02:55;;;;;;;15.00;10.93;;;;;;;27.83;63.02;99171.59;3477708;28;20143;-43
2021/07/17 05:04:37;;;;;;;15.30;10.57;;;;;;;27.96;63.89;99180.47;3482796;28;20126;-43
2021/07/17 05:06:18;;;;;;;13.95;11.15;;;;;;;28.07;61.80;99174.41;3472725;28;20064;-43
2021/07/17 05:07:59;;;;;;;15.57;9.35;;;;;;;28.12;61.37;99180.31;3468342;28;20138;-43
2021/07/17 05:09:40;;;;;;;12.73;10.20;;;;;;;28.18;61.75;99181.75;3479712;28;20139;-43
2021/07/17 05:11:23;;;;;;;14.68;10.32;;;;;;;28.26;60.78;99182.06;3478697;28;20493;-44
2021/07/17 05:13:11;;;;;;;16.83;10.38;;;;;;;28.35;60.74;99181.47;3468372;28;20088;-43
2021/07/17 05:14:53;;;;;;;14.35;9.93;;;;;;;28.39;61.15;99184.78;3474887;28;20048;-43
2021/07/17 05:16:34;;;;;;;14.32;9.98;;;;;;;28.41;60.72;99175.72;3482121;28;20427;-43
2021/07/17 05:18:15;;;;;;;19.42;10.73;;;;;;;28.43;60.77;99188.97;3480321;28;20047;-43
2021/07/17 05:19:57;;;;;;;28.45;11.90;;;;;;;28.47;60.32;99181.59;3480305;28;20514;-43
2021/07/17 05:21:38;;;;;;;14.05;9.27;;;;;;;28.52;58.85;99183.00;3470380;28;20137;-43
2021/07/17 05:23:19;;;;;;;13.38;9.88;;;;;;;28.53;58.55;99183.84;3472246;28;20099;-44
2021/07/17 05:25:01;;;;;;;13.05;8.02;;;;;;;28.59;59.01;99181.59;3467594;28;20087;-43
2021/07/17 05:26:43;;;;;;;15.30;10.05;;;;;;;28.64;58.83;99185.75;3474878;28;20084;-43
2021/07/17 05:28:24;;;;;;;14.20;9.20;;;;;;;28.70;59.10;99183.53;3481752;28;20493;-43
2021/07/17 05:30:07;;;;;;;16.67;9.60;;;;;;;28.74;57.43;99187.72;3478303;28;20053;-44
2021/07/17 05:31:48;;;;;;;19.83;10.37;;;;;;;28.76;56.83;99192.94;3480367;28;20492;-45
2021/07/17 05:33:29;;;;;;;18.85;10.18;;;;;;;28.78;57.63;99194.53;3480788;28;20293;-43
2021/07/17 05:35:11;;;;;;;20.08;10.50;;;;;;;28.85;57.81;99197.66;3479127;28;20052;-43
2021/07/17 05:36:52;;;;;;;17.13;10.30;;;;;;;28.97;57.99;99198.63;3468349;28;20090;-44
2021/07/17 05:38:34;;;;;;;14.18;9.88;;;;;;;29.10;57.24;99194.13;3474262;28;20408;-43
2021/07/17 05:40:15;;;;;;;15.18;10.77;;;;;;;29.29;56.26;99200.81;3482025;28;20422;-43
2021/07/17 05:41:57;;;;;;;12.35;9.32;;;;;;;29.39;55.84;99193.88;3477536;28;20170;-43
2021/07/17 05:43:39;;;;;;;13.57;9.57;;;;;;;29.48;55.62;99195.88;3480528;28;20106;-43
2021/07/17 05:45:21;;;;;;;12.65;9.55;;;;;;;29.60;56.27;99199.50;3479437;28;20088;-43
2021/07/17 05:47:03;;;;;;;12.88;9.82;;;;;;;29.60;54.77;99198.66;3478719;28;20616;-43
2021/07/17 05:48:44;;;;;;;15.32;9.25;;;;;;;29.59;55.76;99203.16;3468493;28;20103;-43
2021/07/17 05:50:25;;;;;;;23.70;9.98;;;;;;;29.48;55.43;99203.03;3474299;28;20574;-42
2021/07/17 05:52:07;;;;;;;12.48;10.15;;;;;;;29.33;55.22;99205.84;3481968;28;20107;-42
2021/07/17 05:53:48;;;;;;;16.15;9.20;;;;;;;29.30;55.00;99205.22;3468514;28;20054;-43
2021/07/17 05:55:30;;;;;;;12.93;8.70;;;;;;;29.33;54.12;99208.53;3470202;28;20589;-42
2021/07/17 05:57:12;;;;;;;16.48;10.40;;;;;;;29.36;54.53;99202.97;3468499;28;20056;-42
2021/07/17 05:58:54;;;;;;;13.02;10.07;;;;;;;29.45;54.71;99209.47;3471608;28;20092;-42
2021/07/17 06:00:35;;;;;;;12.05;9.35;;;;;;;29.55;55.04;99205.22;3468263;28;20533;-42
2021/07/17 06:02:17;;;;;;;10.38;9.00;;;;;;;29.65;54.34;99207.22;3474639;28;20049;-42
2021/07/17 06:04:01;;;;;;;15.05;9.68;;;;;;;29.81;54.39;99205.09;3481294;28;20064;-44
2021/07/17 06:05:42;;;;;;;21.98;9.43;;;;;;;29.99;53.48;99204.72;3478933;28;20049;-42
2021/07/17 06:07:24;;;;;;;12.68;9.65;;;;;;;30.08;52.72;99204.91;3477927;28;20068;-42
2021/07/17 06:09:05;;;;;;;16.63;9.32;;;;;;;30.16;53.27;99198.16;3481704;28;20135;-42
2021/07/17 06:10:47;;;;;;;12.95;10.07;;;;;;;30.26;52.81;99201.81;3475251;28;20081;-42
2021/07/17 06:12:29;;;;;;;12.70;9.60;;;;;;;30.39;52.14;99202.59;3468179;28;20088;-43
2021/07/17 06:14:10;;;;;;;13.38;9.50;;;;;;;30.55;52.15;99202.28;3471532;28;20049;-42
2021/07/17 06:15:52;;;;;;;19.23;10.35;;;;;;;30.66;50.70;99206.81;3469076;28;20487;-43
2021/07/17 06:17:33;;;;;;;15.63;10.00;;;;;;;30.70;50.34;99205.59;3478558;28;20053;-42
2021/07/17 06:19:15;;;;;;;11.80;9.43;;;;;;;30.86;50.93;99192.75;3477668;28;20044;-43
2021/07/17 06:20:58;;;;;;;13.95;10.15;;;;;;;30.96;50.35;99206.28;3481708;28;20091;-42
2021/07/17 06:22:39;;;;;;;18.15;8.77;;;;;;;30.97;50.04;99202.63;3477320;28;20130;-42
2021/07/17 06:24:21;;;;;;;10.70;8.13;;;;;;;31.00;50.03;99202.41;3481575;28;20539;-45
2021/07/17 06:26:02;;;;;;;14.40;9.95;;;;;;;31.04;49.62;99203.84;3477177;28;20049;-42
2021/07/17 06:27:44;;;;;;;20.92;9.90;;;;;;;31.20;49.45;99203.50;3480469;28;20498;-42
2021/07/17 06:29:25;;;;;;;14.40;10.20;;;;;;;31.33;48.86;99200.69;3477721;28;20084;-42
2021/07/17 06:31:07;;;;;;;12.75;9.93;;;;;;;31.36;47.01;99199.63;3479844;28;20135;-42
2021/07/17 06:32:48;;;;;;;13.07;9.80;;;;;;;31.41;47.54;99200.13;3468934;28;20064;-43
2021/07/17 06:34:30;;;;;;;15.43;10.13;;;;;;;31.50;47.58;99201.19;3477266;28;20083;-42
2021/07/17 06:36:11;;;;;;;12.57;8.75;;;;;;;31.52;47.21;99191.19;3482731;28;20098;-43
2021/07/17 06:37:53;;;;;;;22.08;9.45;;;;;;;31.52;46.62;99196.56;3479474;28;20520;-42
2021/07/17 06:39:34;;;;;;;14.23;9.38;;;;;;;31.63;47.20;99199.22;3483108;28;20132;-43
2021/07/17 06:41:16;;;;;;;11.85;9.15;;;;;;;31.77;48.72;99190.03;3471446;28;20045;-42
2021/07/17 06:42:58;;;;;;;15.60;10.07;;;;;;;31.83;47.14;99192.19;3472015;28;20077;-42
2021/07/17 06:44:39;;;;;;;16.40;10.85;;;;;;;31.93;47.20;99187.81;3470534;28;20092;-42
2021/07/17 06:46:20;;;;;;;14.55;9.38;;;;;;;32.02;45.52;99194.25;3474178;28;20472;-42
2021/07/17 06:48:02;;;;;;;11.38;8.93;;;;;;;31.92;44.11;99186.13;3483759;28;20536;-43
2021/07/17 06:49:44;;;;;;;11.68;8.45;;;;;;;31.91;44.90;99186.22;3475453;28;20045;-44
2021/07/17 06:51:25;;;;;;;10.65;8.02;;;;;;;31.91;43.26;99189.75;3471242;28;20080;-44
2021/07/17 06:53:06;;;;;;;14.00;7.88;;;;;;;32.08;45.04;99190.19;3470869;28;20351;-44
2021/07/17 06:54:47;;;;;;;14.23;7.60;;;;;;;32.18;43.76;99186.66;3473012;28;20077;-44
2021/07/17 06:56:29;;;;;;;14.25;8.88;;;;;;;32.35;43.89;99198.63;3470644;28;20076;-45
2021/07/17 06:58:11;;;;;;;17.20;8.98;;;;;;;32.47;43.54;99179.78;3473812;28;20056;-44
2021/07/17 06:59:52;;;;;;;17.95;8.57;;;;;;;32.49;43.32;99188.59;3483395;28;20420;-44
2021/07/17 07:01:34;;;;;;;15.15;8.57;;;;;;;32.55;42.80;99190.75;3475224;28;20148;-44
2021/07/17 07:03:15;;;;;;;13.35;9.10;;;;;;;32.61;42.43;99195.59;3470915;28;20136;-43
2021/07/17 07:04:57;;;;;;;15.55;8.73;;;;;;;32.62;42.36;99189.22;3479953;28;20048;-43
2021/07/17 07:06:38;;;;;;;9.90;8.82;;;;;;;32.69;42.67;99185.03;3480450;28;20140;-44
2021/07/17 07:08:20;;;;;;;16.17;8.80;;;;;;;32.79;42.63;99186.94;3482576;28;20569;-44
2021/07/17 07:10:03;;;;;;;13.50;9.00;;;;;;;32.91;42.59;99185.88;3478931;28;20136;-46
2021/07/17 07:11:44;;;;;;;;;;;;;;;33.10;42.77;99179.75;3484063;28;20502;-44
2021/07/17 07:13:27;;;;;;;9.70;8.10;;;;;;;33.27;41.42;99180.97;3479117;28;20394;-44
2021/07/17 07:15:10;;;;;;;13.10;8.73;;;;;;;33.39;42.31;99179.88;3482876;28;20140;-44
2021/07/17 07:16:51;;;;;;;16.65;8.60;;;;;;;33.54;40.79;99180.31;3472503;28;20060;-44
2021/07/17 07:18:33;;;;;;;12.10;7.78;;;;;;;33.54;40.26;99182.16;3471485;28;20049;-44
2021/07/17 07:20:15;;;;;;;9.88;8.38;;;;;;;33.67;41.28;99185.50;3482781;28;20643;-44
2021/07/17 07:21:56;;;;;;;20.63;9.02;;;;;;;33.76;40.54;99187.34;3478140;28;20116;-44
2021/07/17 07:23:38;;;;;;;11.40;8.23;;;;;;;33.83;40.12;99187.66;3469750;28;20144;-44
2021/07/17 07:25:19;;;;;;;12.50;8.20;;;;;;;33.89;38.19;99184.38;3473330;28;20092;-44
2021/07/17 07:27:01;;;;;;;16.30;7.80;;;;;;;33.99;38.83;99185.25;3470841;28;20085;-44
2021/07/17 07:28:42;;;;;;;14.02;8.05;;;;;;;34.02;40.14;99193.03;3479751;28;20107;-44
2021/07/17 07:30:24;;;;;;;9.55;8.02;;;;;;;34.16;39.14;99185.56;3480013;28;20120;-44
2021/07/17 07:32:06;;;;;;;11.30;8.02;;;;;;;34.33;38.40;99192.06;3482612;28;20048;-44
2021/07/17 07:33:47;;;;;;;10.68;8.05;;;;;;;34.47;38.26;99196.16;3477474;28;20060;-45
2021/07/17 07:35:29;;;;;;;12.50;8.57;;;;;;;34.47;37.95;99196.16;3469554;28;20491;-45
2021/07/17 07:37:10;;;;;;;9.50;8.48;;;;;;;34.51;38.16;99187.63;3476960;28;20056;-46
2021/07/17 07:38:52;;;;;;;11.98;8.20;;;;;;;34.49;37.84;99186.94;3482882;28;20607;-45
2021/07/17 07:40:34;;;;;;;21.20;9.32;;;;;;;34.41;37.66;99187.66;3479846;28;20052;-44
2021/07/17 07:42:15;;;;;;;12.80;8.07;;;;;;;34.35;38.26;99185.53;3480051;28;20052;-44
2021/07/17 07:43:57;;;;;;;9.18;7.75;;;;;;;34.33;38.93;99186.69;3470101;28;20084;-44
2021/07/17 07:45:56;;;;;;;9.55;7.53;;;;;;;34.45;38.83;99193.63;3474792;28;20135;-44
2021/07/17 07:47:38;;;;;;;9.98;7.70;;;;;;;34.55;37.88;99182.81;3482148;28;20077;-44
2021/07/17 07:49:20;;;;;;;12.05;7.75;;;;;;;34.76;37.97;99186.22;3479190;28;20418;-44